Airfield :
LOGIN :

Register | Disclaimer

   EN    FR    IT 

 










Legend :    VFR   Marginal VFR   IFR   Intensive IFR   Very Intensive IFR
Visi :
Ceiling :
>= 8 km
>= 3000ft
5 to 8 km
1000 to 3000 ft
1500m to 5 km
500 to 1000 ft
800 to 1500m
200 to 500 ft
< 800m
< 200 ft
Symbols :   Thunderstorms  Fog  Heavy snow  Heavy precipitations  Wind > 20 kt
SIGMETs :     Misc.  Thunderstorms  Icing  Turbulence  Mountain Waves  Volcanic Ashes







- Airport Elevation : 1363 ft


ETIC - Grafenwohr Army Air Field

CURRENT METAR :
  • 171456Z AUTO 04004KT 9999 FEW005 FEW048 SCT110 SCT130 BKN180 20/17 A2994 RMK AO2 DZB1359E01RAB01E41 SLP134 P0015 60015 T01950169 53001 TSNO $

EXPIRED METARs :
  • 171441Z AUTO 03004KT 9999 FEW003 SCT060 SCT075 OVC110 18/16 A2994 RMK AO2 DZB1359E01RAB01E41 SLP135 TSNO $
  • 171423Z AUTO 01008KT 8000 +RA FEW003 OVC070 18/15 A2995 RMK AO2 DZB1359E01RAB01 SLP139 TSNO $
  • 171359Z AUTO 35007G18KT 9999 DZ BKN075 BKN110 23/11 A2994 RMK AO2 DZB59 SLP130 TSNO $
  • 171356Z AUTO 34008G18KT 9999 BKN075 BKN085 BKN110 24/11 A2993 RMK AO2 SLP127 T02410107 TSNO $
  • 171330Z AUTO 34011G19KT 9999 SCT070 BKN110 27/10 A2993 RMK AO2 WSHFT 27 SLP123 TSNO $
  • 171256Z AUTO 27008G16KT 9999 CLR 28/10 A2992 RMK AO2 SLP118 T02790097 TSNO $

TAF TAF ETIC
Valid from the 17 at 14:00 until the 18 at 20:00 UTC


171420Z 1714/1820 32010G15KT 9000 -SHRA BKN070 QNH2996INS
TEMPO 1714/1716 8000 -TSRA BKN050CB
BECMG 1718/1719 VRB06KT 9999 NSW SCT070 QNH2997INS
BECMG 1805/1806 32009KT 9999 SCT050 QNH3004INS
BECMG 1810/1811 32010G15KT 9000 -SHRA BKN040 QNH3004INS
BECMG 1815/1816 31009KT 9999 NSW BKN060 QNH3004INS TX32/1714Z TN12/1804Z
No reported NOTAMs for that airfield.



MET'MAP, your aeronautical weather chart ! - Copyright ORBIFLY December 2007 - Disclaimer

ORBIFLY MET'MAP TEAM :

Programming & Development : Alexandra Zaïnal
Concept & Development : Baudouin d'Aumeries
Co-Development & Prog : Marc-Olivier Méhu
Technical & hardware support : Manuel Goepfert

Contact : metmap@orbifly.com




SOURCES & CREDITS :

   NOAA